Prairie Du Chien, WI

4:39 AM CDT on July 28, 2014 (GMT -0500)
Prairie du Chien (KWIPRAIR6) Elev 681 ft | 43.04 °N, 91.14 °W | Change Station

Current weather conditions updated 3 seconds ago

Clear
Clear
60.3 °F
Feels Like 60.3 °F
N
0.0
Wind Variable Wind from North
Gusts 2.2 mph

Today is forecast to be Much Cooler than yesterday.

Today
High -- | Low -- °F
--% Chance of Precip.
Yesterday
High -- | Low -- °F
Precip. -- in
5:51 AM 8:30 PM
New Moon, 2% visible
Pressure 30.09 in
Visibility 10.0 miles
Clouds Clear
Dew Point 56 °F
Humidity 87%
Rainfall 0.00 in
Snow Depth Not available.
UV 0.0 out of 12
Pollen 6.70 out of 12
Air Quality Not available.
Flu Activity Not available.
METAR KPDC 280915Z AUTO 33007KT 10SM CLR 15/11 A3009 RMK AO2 T01520106

More Conditions Fewer Conditions

Pressure 30.09 in
Visibility 10.0 miles
Clouds Clear
Dew Point 56 °F
Humidity 87%
Rainfall 0.00 in
Snow Depth Not available.
UV 0.0 out of 12
Pollen 6.70 out of 12
Air Quality Not available.
Flu Activity Not available.
METAR KPDC 280915Z AUTO 33007KT 10SM CLR 15/11 A3009 RMK AO2 T01520106

More Conditions Fewer Conditions

10-Day Weather Forecast

Almanac

Astronomy

Jul. 28, 2014 Rise Set
Actual Time 5:51 AM CDT 8:30 PM CDT
Civil Twilight 5:18 AM CDT 9:02 PM CDT
Nautical Twilight 4:37 AM CDT 9:43 PM CDT
Astronomical Twilight 3:50 AM CDT 10:30 PM CDT
Moon 7:37 AM CDT 9:07 PM CDT
Length of Visible Light 15h 44m
Length of Day
14h 39m
Tomorrow will be 2m 8s shorter.
New Moon, 2% of the Moon is Illuminated
Today
New Moon
Aug 3
First Quarter
Aug 10
Full
Aug 17
Last Quarter
Aug 25
New

Today's Extremes

State Highs State Lows

Community

WunderPhotos

Upload Photos

1,738,295 photos uploaded!

Nearby

Snow Depth

Station Depth Elevation
No new snow has been reported.

Earthquake Activity

City Distance Mag. Time & Date
No recent earthquake activity has been reported nearby.
Minimum magnitude displayed is 2.5.

Coastal Water Temperatures

Place Temperature
No Stations Reporting

Nearby Weather Stations

Station Location Temp. Dew Point Humidity Wind Precip. Elev Updated Type
Prairie du Chien, Prairie Du Chien, WI 60.3 °F 56 °F 87% North  at  0.0 mph 0.00 in / hr 681 ft 4:39 AM CDT Rapid Fire
Paint Creek Township, Waterville, IA 55.6 °F 51 °F 85% NNE  at  0.0 mph 0.00 in / hr 951 ft 4:30 AM CDT Normal
Monona, IA 55.9 °F 54 °F 92% North  at  4.0 mph 0.00 in / hr 1214 ft 4:38 AM CDT Normal
Postville, IA 55.5 °F 54 °F 93% NE  at  1.0 mph 0.00 in / hr 1181 ft 4:38 AM CDT Normal
RAWS BOSCOBEL WI, Boscobel, WI 56 °F 53 °F 90% NNE  at  2 mph 0.00 in / hr 672 ft 4:03 AM CDT MADIS

Show More Stations Show Fewer Stations